sensor_id;sensor_type;location;lat;lon;timestamp;P1;durP1;ratioP1;P2;durP2;ratioP2
62010;SDS011;47967;51.756;10.174;2022-07-03T00:02:34;4.35;;;1.73;;
62010;SDS011;47967;51.756;10.174;2022-07-03T00:06:36;2.22;;;1.98;;
62010;SDS011;47967;51.756;10.174;2022-07-03T00:10:40;3.53;;;1.98;;
62010;SDS011;47967;51.756;10.174;2022-07-03T00:14:43;5.72;;;2.25;;
62010;SDS011;47967;51.756;10.174;2022-07-03T00:18:46;3.15;;;1.85;;
62010;SDS011;47967;51.756;10.174;2022-07-03T00:22:49;2.10;;;1.90;;
62010;SDS011;47967;51.756;10.174;2022-07-03T00:26:54;3.53;;;2.17;;
62010;SDS011;47967;51.756;10.174;2022-07-03T00:30:59;4.15;;;2.22;;
62010;SDS011;47967;51.756;10.174;2022-07-03T00:35:02;3.90;;;2.07;;
62010;SDS011;47967;51.756;10.174;2022-07-03T00:39:05;3.67;;;2.30;;
62010;SDS011;47967;51.756;10.174;2022-07-03T00:43:09;3.13;;;2.05;;
62010;SDS011;47967;51.756;10.174;2022-07-03T00:47:12;2.22;;;2.05;;
62010;SDS011;47967;51.756;10.174;2022-07-03T00:55:20;4.78;;;2.00;;
62010;SDS011;47967;51.756;10.174;2022-07-03T00:59:26;1.95;;;1.80;;
62010;SDS011;47967;51.756;10.174;2022-07-03T01:03:30;8.93;;;1.95;;
62010;SDS011;47967;51.756;10.174;2022-07-03T01:07:40;2.95;;;2.00;;
62010;SDS011;47967;51.756;10.174;2022-07-03T01:11:47;2.90;;;1.83;;
62010;SDS011;47967;51.756;10.174;2022-07-03T01:16:00;4.57;;;2.38;;
62010;SDS011;47967;51.756;10.174;2022-07-03T01:20:07;3.28;;;2.10;;
62010;SDS011;47967;51.756;10.174;2022-07-03T01:24:16;3.25;;;2.00;;
62010;SDS011;47967;51.756;10.174;2022-07-03T01:28:33;2.35;;;1.77;;
62010;SDS011;47967;51.756;10.174;2022-07-03T01:32:41;6.90;;;2.20;;
62010;SDS011;47967;51.756;10.174;2022-07-03T01:36:46;1.90;;;1.70;;
62010;SDS011;47967;51.756;10.174;2022-07-03T01:40:50;1.90;;;1.80;;
62010;SDS011;47967;51.756;10.174;2022-07-03T01:44:58;2.95;;;2.30;;
62010;SDS011;47967;51.756;10.174;2022-07-03T01:49:02;2.10;;;1.90;;
62010;SDS011;47967;51.756;10.174;2022-07-03T01:53:08;2.38;;;1.73;;
62010;SDS011;47967;51.756;10.174;2022-07-03T01:57:11;6.35;;;1.90;;
62010;SDS011;47967;51.756;10.174;2022-07-03T02:01:17;2.80;;;2.13;;
62010;SDS011;47967;51.756;10.174;2022-07-03T02:05:26;2.90;;;1.98;;
62010;SDS011;47967;51.756;10.174;2022-07-03T02:09:35;7.82;;;2.10;;
62010;SDS011;47967;51.756;10.174;2022-07-03T02:13:52;6.25;;;2.20;;
62010;SDS011;47967;51.756;10.174;2022-07-03T02:18:03;6.05;;;2.10;;
62010;SDS011;47967;51.756;10.174;2022-07-03T02:22:18;5.35;;;2.10;;
62010;SDS011;47967;51.756;10.174;2022-07-03T02:26:24;4.55;;;2.28;;
62010;SDS011;47967;51.756;10.174;2022-07-03T02:30:33;2.35;;;2.10;;
62010;SDS011;47967;51.756;10.174;2022-07-03T02:34:42;3.03;;;2.25;;
62010;SDS011;47967;51.756;10.174;2022-07-03T02:38:47;3.63;;;2.60;;
62010;SDS011;47967;51.756;10.174;2022-07-03T02:42:59;2.38;;;2.17;;
62010;SDS011;47967;51.756;10.174;2022-07-03T02:47:12;2.45;;;2.10;;
62010;SDS011;47967;51.756;10.174;2022-07-03T02:51:26;2.10;;;1.90;;
62010;SDS011;47967;51.756;10.174;2022-07-03T02:55:39;5.20;;;2.20;;
62010;SDS011;47967;51.756;10.174;2022-07-03T02:59:45;3.95;;;2.25;;
62010;SDS011;47967;51.756;10.174;2022-07-03T03:03:58;2.25;;;2.05;;
62010;SDS011;47967;51.756;10.174;2022-07-03T03:08:17;5.82;;;2.28;;
62010;SDS011;47967;51.756;10.174;2022-07-03T03:12:30;3.45;;;2.10;;
62010;SDS011;47967;51.756;10.174;2022-07-03T03:16:40;6.97;;;2.22;;
62010;SDS011;47967;51.756;10.174;2022-07-03T03:20:48;6.13;;;2.08;;
62010;SDS011;47967;51.756;10.174;2022-07-03T03:24:54;4.82;;;2.20;;
62010;SDS011;47967;51.756;10.174;2022-07-03T03:28:57;3.35;;;2.20;;
62010;SDS011;47967;51.756;10.174;2022-07-03T03:33:01;5.10;;;2.40;;
62010;SDS011;47967;51.756;10.174;2022-07-03T03:37:04;8.10;;;2.10;;
62010;SDS011;47967;51.756;10.174;2022-07-03T03:41:09;3.53;;;2.28;;
62010;SDS011;47967;51.756;10.174;2022-07-03T03:45:18;3.50;;;2.03;;
62010;SDS011;47967;51.756;10.174;2022-07-03T03:49:20;6.23;;;2.40;;
62010;SDS011;47967;51.756;10.174;2022-07-03T03:53:24;5.85;;;2.20;;
62010;SDS011;47967;51.756;10.174;2022-07-03T03:57:29;3.35;;;2.20;;
62010;SDS011;47967;51.756;10.174;2022-07-03T04:01:32;5.20;;;2.17;;
62010;SDS011;47967;51.756;10.174;2022-07-03T04:05:34;7.45;;;2.17;;
62010;SDS011;47967;51.756;10.174;2022-07-03T04:09:37;2.40;;;2.20;;
62010;SDS011;47967;51.756;10.174;2022-07-03T04:13:41;7.05;;;2.38;;
62010;SDS011;47967;51.756;10.174;2022-07-03T04:17:44;4.55;;;2.35;;
62010;SDS011;47967;51.756;10.174;2022-07-03T04:21:46;4.13;;;2.53;;
62010;SDS011;47967;51.756;10.174;2022-07-03T04:25:50;3.55;;;2.20;;
62010;SDS011;47967;51.756;10.174;2022-07-03T04:29:54;3.73;;;1.93;;
62010;SDS011;47967;51.756;10.174;2022-07-03T04:33:56;3.92;;;2.30;;
62010;SDS011;47967;51.756;10.174;2022-07-03T04:37:59;3.47;;;2.10;;
62010;SDS011;47967;51.756;10.174;2022-07-03T04:42:01;2.88;;;2.58;;
62010;SDS011;47967;51.756;10.174;2022-07-03T04:46:06;5.70;;;2.80;;
62010;SDS011;47967;51.756;10.174;2022-07-03T04:50:08;4.88;;;2.60;;
62010;SDS011;47967;51.756;10.174;2022-07-03T04:54:11;6.47;;;2.97;;
62010;SDS011;47967;51.756;10.174;2022-07-03T04:58:14;2.67;;;2.43;;
62010;SDS011;47967;51.756;10.174;2022-07-03T05:02:18;6.20;;;2.33;;
62010;SDS011;47967;51.756;10.174;2022-07-03T05:06:20;3.17;;;2.47;;
62010;SDS011;47967;51.756;10.174;2022-07-03T05:10:23;4.60;;;2.47;;
62010;SDS011;47967;51.756;10.174;2022-07-03T05:14:25;4.82;;;2.35;;
62010;SDS011;47967;51.756;10.174;2022-07-03T05:18:29;4.27;;;2.57;;
62010;SDS011;47967;51.756;10.174;2022-07-03T05:22:32;3.50;;;2.40;;
62010;SDS011;47967;51.756;10.174;2022-07-03T05:26:34;3.30;;;2.50;;
62010;SDS011;47967;51.756;10.174;2022-07-03T05:30:37;3.03;;;2.30;;
62010;SDS011;47967;51.756;10.174;2022-07-03T05:34:41;4.82;;;2.28;;
62010;SDS011;47967;51.756;10.174;2022-07-03T05:38:44;2.63;;;2.17;;
62010;SDS011;47967;51.756;10.174;2022-07-03T05:43:04;4.28;;;2.10;;
62010;SDS011;47967;51.756;10.174;2022-07-03T05:47:06;4.23;;;2.20;;
62010;SDS011;47967;51.756;10.174;2022-07-03T05:51:10;3.17;;;2.10;;
62010;SDS011;47967;51.756;10.174;2022-07-03T05:55:13;7.43;;;2.20;;
62010;SDS011;47967;51.756;10.174;2022-07-03T05:59:16;4.80;;;2.00;;
62010;SDS011;47967;51.756;10.174;2022-07-03T06:03:18;2.00;;;1.90;;
62010;SDS011;47967;51.756;10.174;2022-07-03T06:07:22;3.00;;;1.92;;
62010;SDS011;47967;51.756;10.174;2022-07-03T06:11:25;3.10;;;2.05;;
62010;SDS011;47967;51.756;10.174;2022-07-03T06:15:27;3.90;;;2.00;;
62010;SDS011;47967;51.756;10.174;2022-07-03T06:19:30;4.32;;;1.90;;
62010;SDS011;47967;51.756;10.174;2022-07-03T06:23:34;2.92;;;1.90;;
62010;SDS011;47967;51.756;10.174;2022-07-03T06:27:47;2.10;;;1.90;;
62010;SDS011;47967;51.756;10.174;2022-07-03T06:31:49;6.10;;;2.00;;
62010;SDS011;47967;51.756;10.174;2022-07-03T06:35:52;2.38;;;1.80;;
62010;SDS011;47967;51.756;10.174;2022-07-03T06:39:56;3.00;;;1.67;;
62010;SDS011;47967;51.756;10.174;2022-07-03T06:43:58;2.67;;;1.90;;
62010;SDS011;47967;51.756;10.174;2022-07-03T06:48:01;1.90;;;1.80;;
62010;SDS011;47967;51.756;10.174;2022-07-03T06:52:04;1.85;;;1.50;;
62010;SDS011;47967;51.756;10.174;2022-07-03T06:56:08;1.55;;;1.45;;
62010;SDS011;47967;51.756;10.174;2022-07-03T07:00:11;1.63;;;1.52;;
62010;SDS011;47967;51.756;10.174;2022-07-03T07:04:14;1.50;;;1.40;;
62010;SDS011;47967;51.756;10.174;2022-07-03T07:08:17;4.50;;;1.60;;
62010;SDS011;47967;51.756;10.174;2022-07-03T07:12:21;2.35;;;1.50;;
62010;SDS011;47967;51.756;10.174;2022-07-03T07:16:23;2.08;;;1.60;;
62010;SDS011;47967;51.756;10.174;2022-07-03T07:20:26;3.53;;;1.50;;
62010;SDS011;47967;51.756;10.174;2022-07-03T07:24:28;5.97;;;1.58;;
62010;SDS011;47967;51.756;10.174;2022-07-03T07:28:32;1.50;;;1.40;;
62010;SDS011;47967;51.756;10.174;2022-07-03T07:32:36;2.38;;;1.52;;
62010;SDS011;47967;51.756;10.174;2022-07-03T07:36:39;1.60;;;1.50;;
62010;SDS011;47967;51.756;10.174;2022-07-03T07:40:41;1.50;;;1.42;;
62010;SDS011;47967;51.756;10.174;2022-07-03T07:44:45;1.50;;;1.40;;
62010;SDS011;47967;51.756;10.174;2022-07-03T07:48:48;2.85;;;1.63;;
62010;SDS011;47967;51.756;10.174;2022-07-03T07:52:51;2.70;;;1.60;;
62010;SDS011;47967;51.756;10.174;2022-07-03T07:56:53;2.75;;;1.40;;
62010;SDS011;47967;51.756;10.174;2022-07-03T08:00:57;4.50;;;2.10;;
62010;SDS011;47967;51.756;10.174;2022-07-03T08:05:18;1.67;;;1.58;;
62010;SDS011;47967;51.756;10.174;2022-07-03T08:09:39;2.65;;;1.60;;
62010;SDS011;47967;51.756;10.174;2022-07-03T08:13:42;2.22;;;1.60;;
62010;SDS011;47967;51.756;10.174;2022-07-03T08:17:48;1.83;;;1.30;;
62010;SDS011;47967;51.756;10.174;2022-07-03T08:21:51;1.77;;;1.65;;
62010;SDS011;47967;51.756;10.174;2022-07-03T08:25:53;3.80;;;1.58;;
62010;SDS011;47967;51.756;10.174;2022-07-03T08:29:56;1.60;;;1.50;;
62010;SDS011;47967;51.756;10.174;2022-07-03T08:34:00;2.42;;;1.60;;
62010;SDS011;47967;51.756;10.174;2022-07-03T08:38:02;3.30;;;1.63;;
62010;SDS011;47967;51.756;10.174;2022-07-03T08:46:09;2.67;;;1.23;;
62010;SDS011;47967;51.756;10.174;2022-07-03T08:50:14;2.15;;;1.50;;
62010;SDS011;47967;51.756;10.174;2022-07-03T08:54:18;1.92;;;1.60;;
62010;SDS011;47967;51.756;10.174;2022-07-03T09:02:24;4.25;;;1.50;;
62010;SDS011;47967;51.756;10.174;2022-07-03T09:06:29;3.03;;;1.38;;
62010;SDS011;47967;51.756;10.174;2022-07-03T09:10:35;2.00;;;1.30;;
62010;SDS011;47967;51.756;10.174;2022-07-03T09:14:38;1.60;;;1.50;;
62010;SDS011;47967;51.756;10.174;2022-07-03T09:18:43;3.50;;;1.60;;
62010;SDS011;47967;51.756;10.174;2022-07-03T09:22:48;1.30;;;1.20;;
62010;SDS011;47967;51.756;10.174;2022-07-03T09:26:52;1.88;;;1.50;;
62010;SDS011;47967;51.756;10.174;2022-07-03T09:30:58;1.77;;;1.50;;
62010;SDS011;47967;51.756;10.174;2022-07-03T09:35:15;1.48;;;1.25;;
62010;SDS011;47967;51.756;10.174;2022-07-03T09:39:21;3.03;;;1.17;;
62010;SDS011;47967;51.756;10.174;2022-07-03T09:43:25;1.13;;;1.05;;
62010;SDS011;47967;51.756;10.174;2022-07-03T09:47:31;2.65;;;1.10;;
62010;SDS011;47967;51.756;10.174;2022-07-03T09:51:34;1.83;;;1.40;;
62010;SDS011;47967;51.756;10.174;2022-07-03T09:59:40;1.40;;;1.30;;
62010;SDS011;47967;51.756;10.174;2022-07-03T10:03:43;1.50;;;1.40;;
62010;SDS011;47967;51.756;10.174;2022-07-03T10:11:54;1.05;;;1.00;;
62010;SDS011;47967;51.756;10.174;2022-07-03T10:15:59;3.00;;;1.20;;
62010;SDS011;47967;51.756;10.174;2022-07-03T10:20:02;1.30;;;1.00;;
62010;SDS011;47967;51.756;10.174;2022-07-03T10:24:05;2.10;;;1.10;;
62010;SDS011;47967;51.756;10.174;2022-07-03T10:28:11;1.17;;;1.08;;
62010;SDS011;47967;51.756;10.174;2022-07-03T10:32:15;4.85;;;1.23;;
62010;SDS011;47967;51.756;10.174;2022-07-03T10:36:18;1.20;;;1.10;;
62010;SDS011;47967;51.756;10.174;2022-07-03T10:40:23;2.75;;;1.17;;
62010;SDS011;47967;51.756;10.174;2022-07-03T10:44:55;1.88;;;1.63;;
62010;SDS011;47967;51.756;10.174;2022-07-03T10:49:07;3.50;;;1.05;;
62010;SDS011;47967;51.756;10.174;2022-07-03T10:57:32;1.17;;;1.10;;
62010;SDS011;47967;51.756;10.174;2022-07-03T11:01:36;1.42;;;1.05;;
62010;SDS011;47967;51.756;10.174;2022-07-03T11:05:38;6.10;;;1.20;;
62010;SDS011;47967;51.756;10.174;2022-07-03T11:09:41;1.15;;;1.05;;
62010;SDS011;47967;51.756;10.174;2022-07-03T11:18:27;0.95;;;0.88;;
62010;SDS011;47967;51.756;10.174;2022-07-03T11:22:37;1.73;;;0.82;;
62010;SDS011;47967;51.756;10.174;2022-07-03T11:27:13;4.47;;;1.20;;
62010;SDS011;47967;51.756;10.174;2022-07-03T11:31:20;2.60;;;0.95;;
62010;SDS011;47967;51.756;10.174;2022-07-03T11:39:52;3.45;;;1.27;;
62010;SDS011;47967;51.756;10.174;2022-07-03T11:43:59;1.35;;;1.17;;
62010;SDS011;47967;51.756;10.174;2022-07-03T11:48:05;1.95;;;1.10;;
62010;SDS011;47967;51.756;10.174;2022-07-03T11:52:30;1.52;;;1.00;;
62010;SDS011;47967;51.756;10.174;2022-07-03T11:56:35;2.30;;;1.20;;
62010;SDS011;47967;51.756;10.174;2022-07-03T12:00:39;2.47;;;1.10;;
62010;SDS011;47967;51.756;10.174;2022-07-03T12:04:42;1.20;;;1.10;;
62010;SDS011;47967;51.756;10.174;2022-07-03T12:08:47;4.32;;;1.30;;
62010;SDS011;47967;51.756;10.174;2022-07-03T12:12:49;8.80;;;1.42;;
62010;SDS011;47967;51.756;10.174;2022-07-03T12:16:52;1.75;;;1.25;;
62010;SDS011;47967;51.756;10.174;2022-07-03T12:20:55;1.40;;;1.20;;
62010;SDS011;47967;51.756;10.174;2022-07-03T12:25:08;3.30;;;1.13;;
62010;SDS011;47967;51.756;10.174;2022-07-03T12:29:13;2.33;;;1.20;;
62010;SDS011;47967;51.756;10.174;2022-07-03T12:33:17;1.58;;;1.23;;
62010;SDS011;47967;51.756;10.174;2022-07-03T12:37:30;1.48;;;1.27;;
62010;SDS011;47967;51.756;10.174;2022-07-03T12:41:35;1.58;;;1.13;;
62010;SDS011;47967;51.756;10.174;2022-07-03T12:45:37;4.50;;;1.50;;
62010;SDS011;47967;51.756;10.174;2022-07-03T12:49:41;1.80;;;1.63;;
62010;SDS011;47967;51.756;10.174;2022-07-03T12:53:44;2.72;;;1.30;;
62010;SDS011;47967;51.756;10.174;2022-07-03T12:58:14;1.02;;;1.02;;
62010;SDS011;47967;51.756;10.174;2022-07-03T13:02:35;2.17;;;1.30;;
62010;SDS011;47967;51.756;10.174;2022-07-03T13:06:39;1.95;;;1.20;;
62010;SDS011;47967;51.756;10.174;2022-07-03T13:10:42;2.50;;;1.13;;
62010;SDS011;47967;51.756;10.174;2022-07-03T13:14:55;2.75;;;1.30;;
62010;SDS011;47967;51.756;10.174;2022-07-03T13:19:01;1.20;;;1.10;;
62010;SDS011;47967;51.756;10.174;2022-07-03T13:23:04;2.55;;;1.30;;
62010;SDS011;47967;51.756;10.174;2022-07-03T13:27:08;1.20;;;1.05;;
62010;SDS011;47967;51.756;10.174;2022-07-03T13:31:12;3.00;;;1.40;;
62010;SDS011;47967;51.756;10.174;2022-07-03T13:35:15;2.50;;;1.35;;
62010;SDS011;47967;51.756;10.174;2022-07-03T13:39:17;1.63;;;1.40;;
62010;SDS011;47967;51.756;10.174;2022-07-03T13:43:20;3.03;;;1.30;;
62010;SDS011;47967;51.756;10.174;2022-07-03T13:47:24;3.95;;;1.30;;
62010;SDS011;47967;51.756;10.174;2022-07-03T13:51:27;2.80;;;1.40;;
62010;SDS011;47967;51.756;10.174;2022-07-03T13:55:29;4.05;;;1.30;;
62010;SDS011;47967;51.756;10.174;2022-07-03T13:59:32;3.22;;;1.10;;
62010;SDS011;47967;51.756;10.174;2022-07-03T14:03:36;2.83;;;1.30;;
62010;SDS011;47967;51.756;10.174;2022-07-03T14:07:39;1.80;;;1.20;;
62010;SDS011;47967;51.756;10.174;2022-07-03T14:11:41;2.83;;;1.10;;
62010;SDS011;47967;51.756;10.174;2022-07-03T14:15:44;2.42;;;1.17;;
62010;SDS011;47967;51.756;10.174;2022-07-03T14:19:48;1.70;;;1.30;;
62010;SDS011;47967;51.756;10.174;2022-07-03T14:23:51;1.35;;;1.05;;
62010;SDS011;47967;51.756;10.174;2022-07-03T14:27:53;2.97;;;1.30;;
62010;SDS011;47967;51.756;10.174;2022-07-03T14:32:14;2.17;;;1.40;;
62010;SDS011;47967;51.756;10.174;2022-07-03T14:36:33;12.15;;;2.35;;
62010;SDS011;47967;51.756;10.174;2022-07-03T14:40:45;2.95;;;1.35;;
62010;SDS011;47967;51.756;10.174;2022-07-03T14:44:48;3.53;;;1.30;;
62010;SDS011;47967;51.756;10.174;2022-07-03T14:48:51;3.22;;;1.40;;
62010;SDS011;47967;51.756;10.174;2022-07-03T14:52:55;4.85;;;1.40;;
62010;SDS011;47967;51.756;10.174;2022-07-03T14:56:58;1.60;;;1.25;;
62010;SDS011;47967;51.756;10.174;2022-07-03T15:01:01;1.73;;;1.15;;
62010;SDS011;47967;51.756;10.174;2022-07-03T15:05:10;2.78;;;1.23;;
62010;SDS011;47967;51.756;10.174;2022-07-03T15:09:18;7.32;;;1.30;;
62010;SDS011;47967;51.756;10.174;2022-07-03T15:13:29;3.20;;;1.42;;
62010;SDS011;47967;51.756;10.174;2022-07-03T15:17:33;1.63;;;1.10;;
62010;SDS011;47967;51.756;10.174;2022-07-03T15:21:37;1.67;;;1.42;;
62010;SDS011;47967;51.756;10.174;2022-07-03T15:25:42;2.53;;;1.20;;
62010;SDS011;47967;51.756;10.174;2022-07-03T15:29:47;8.57;;;1.90;;
62010;SDS011;47967;51.756;10.174;2022-07-03T15:33:49;4.53;;;1.50;;
62010;SDS011;47967;51.756;10.174;2022-07-03T15:38:00;6.30;;;1.45;;
62010;SDS011;47967;51.756;10.174;2022-07-03T15:42:10;5.00;;;1.45;;
62010;SDS011;47967;51.756;10.174;2022-07-03T15:50:31;2.95;;;1.17;;
62010;SDS011;47967;51.756;10.174;2022-07-03T15:54:49;1.00;;;1.00;;
62010;SDS011;47967;51.756;10.174;2022-07-03T15:59:00;1.40;;;1.27;;
62010;SDS011;47967;51.756;10.174;2022-07-03T16:03:11;1.40;;;1.30;;
62010;SDS011;47967;51.756;10.174;2022-07-03T16:07:27;3.33;;;1.20;;
62010;SDS011;47967;51.756;10.174;2022-07-03T16:11:31;2.67;;;1.35;;
62010;SDS011;47967;51.756;10.174;2022-07-03T16:15:38;2.22;;;1.27;;
62010;SDS011;47967;51.756;10.174;2022-07-03T16:19:46;1.20;;;1.10;;
62010;SDS011;47967;51.756;10.174;2022-07-03T16:23:49;2.08;;;1.40;;
62010;SDS011;47967;51.756;10.174;2022-07-03T16:27:52;6.75;;;1.42;;
62010;SDS011;47967;51.756;10.174;2022-07-03T16:31:57;1.58;;;1.05;;
62010;SDS011;47967;51.756;10.174;2022-07-03T16:36:04;1.08;;;0.90;;
62010;SDS011;47967;51.756;10.174;2022-07-03T16:40:14;2.78;;;1.13;;
62010;SDS011;47967;51.756;10.174;2022-07-03T16:44:19;4.40;;;2.08;;
62010;SDS011;47967;51.756;10.174;2022-07-03T16:48:33;4.97;;;2.45;;
62010;SDS011;47967;51.756;10.174;2022-07-03T16:52:42;2.00;;;1.50;;
62010;SDS011;47967;51.756;10.174;2022-07-03T16:56:45;1.67;;;1.42;;
62010;SDS011;47967;51.756;10.174;2022-07-03T17:00:51;7.63;;;3.63;;
62010;SDS011;47967;51.756;10.174;2022-07-03T17:04:58;7.03;;;2.85;;
62010;SDS011;47967;51.756;10.174;2022-07-03T17:09:03;2.20;;;1.35;;
62010;SDS011;47967;51.756;10.174;2022-07-03T17:13:07;1.20;;;1.02;;
62010;SDS011;47967;51.756;10.174;2022-07-03T17:17:10;2.22;;;1.10;;
62010;SDS011;47967;51.756;10.174;2022-07-03T17:21:19;1.20;;;1.02;;
62010;SDS011;47967;51.756;10.174;2022-07-03T17:25:27;1.17;;;0.93;;
62010;SDS011;47967;51.756;10.174;2022-07-03T17:29:33;3.50;;;1.50;;
62010;SDS011;47967;51.756;10.174;2022-07-03T17:33:48;1.10;;;1.10;;
62010;SDS011;47967;51.756;10.174;2022-07-03T17:37:55;1.85;;;1.10;;
62010;SDS011;47967;51.756;10.174;2022-07-03T17:41:59;1.80;;;1.08;;
62010;SDS011;47967;51.756;10.174;2022-07-03T17:46:02;3.05;;;0.98;;
62010;SDS011;47967;51.756;10.174;2022-07-03T17:50:05;1.83;;;1.10;;
62010;SDS011;47967;51.756;10.174;2022-07-03T17:54:10;1.10;;;1.00;;
62010;SDS011;47967;51.756;10.174;2022-07-03T17:58:13;5.65;;;1.20;;
62010;SDS011;47967;51.756;10.174;2022-07-03T18:02:16;5.85;;;1.38;;
62010;SDS011;47967;51.756;10.174;2022-07-03T18:06:19;3.25;;;1.17;;
62010;SDS011;47967;51.756;10.174;2022-07-03T18:10:30;6.53;;;1.50;;
62010;SDS011;47967;51.756;10.174;2022-07-03T18:14:34;3.00;;;1.10;;
62010;SDS011;47967;51.756;10.174;2022-07-03T18:18:42;0.93;;;0.93;;
62010;SDS011;47967;51.756;10.174;2022-07-03T18:22:46;2.53;;;1.10;;
62010;SDS011;47967;51.756;10.174;2022-07-03T18:26:51;1.02;;;1.00;;
62010;SDS011;47967;51.756;10.174;2022-07-03T18:30:57;1.25;;;0.95;;
62010;SDS011;47967;51.756;10.174;2022-07-03T18:35:00;2.10;;;1.25;;
62010;SDS011;47967;51.756;10.174;2022-07-03T18:39:07;2.00;;;1.27;;
62010;SDS011;47967;51.756;10.174;2022-07-03T18:43:15;2.17;;;1.10;;
62010;SDS011;47967;51.756;10.174;2022-07-03T18:47:18;2.03;;;1.20;;
62010;SDS011;47967;51.756;10.174;2022-07-03T18:51:21;1.20;;;1.10;;
62010;SDS011;47967;51.756;10.174;2022-07-03T18:55:26;4.72;;;1.30;;
62010;SDS011;47967;51.756;10.174;2022-07-03T18:59:39;3.28;;;1.30;;
62010;SDS011;47967;51.756;10.174;2022-07-03T19:03:50;4.32;;;1.50;;
62010;SDS011;47967;51.756;10.174;2022-07-03T19:08:00;1.70;;;1.05;;
62010;SDS011;47967;51.756;10.174;2022-07-03T19:12:07;2.17;;;1.33;;
62010;SDS011;47967;51.756;10.174;2022-07-03T19:16:14;1.98;;;1.40;;
62010;SDS011;47967;51.756;10.174;2022-07-03T19:20:18;3.70;;;1.75;;
62010;SDS011;47967;51.756;10.174;2022-07-03T19:28:23;3.33;;;1.77;;
62010;SDS011;47967;51.756;10.174;2022-07-03T19:32:27;2.97;;;1.50;;
62010;SDS011;47967;51.756;10.174;2022-07-03T19:36:30;1.50;;;1.40;;
62010;SDS011;47967;51.756;10.174;2022-07-03T19:40:32;1.60;;;1.33;;
62010;SDS011;47967;51.756;10.174;2022-07-03T19:44:35;2.92;;;1.70;;
62010;SDS011;47967;51.756;10.174;2022-07-03T19:48:39;4.43;;;1.70;;
62010;SDS011;47967;51.756;10.174;2022-07-03T19:52:44;1.77;;;1.60;;
62010;SDS011;47967;51.756;10.174;2022-07-03T19:56:46;5.43;;;1.60;;
62010;SDS011;47967;51.756;10.174;2022-07-03T20:00:49;3.08;;;1.70;;
62010;SDS011;47967;51.756;10.174;2022-07-03T20:04:53;3.00;;;1.75;;
62010;SDS011;47967;51.756;10.174;2022-07-03T20:08:55;4.32;;;1.90;;
62010;SDS011;47967;51.756;10.174;2022-07-03T20:17:01;4.03;;;1.73;;
62010;SDS011;47967;51.756;10.174;2022-07-03T20:21:05;3.50;;;1.60;;
62010;SDS011;47967;51.756;10.174;2022-07-03T20:25:08;6.60;;;1.77;;
62010;SDS011;47967;51.756;10.174;2022-07-03T20:29:11;4.15;;;2.30;;
62010;SDS011;47967;51.756;10.174;2022-07-03T20:33:13;2.83;;;2.00;;
62010;SDS011;47967;51.756;10.174;2022-07-03T20:37:17;2.95;;;1.70;;
62010;SDS011;47967;51.756;10.174;2022-07-03T20:41:21;5.35;;;1.80;;
62010;SDS011;47967;51.756;10.174;2022-07-03T20:49:27;2.90;;;1.83;;
62010;SDS011;47967;51.756;10.174;2022-07-03T20:53:31;2.75;;;1.90;;
62010;SDS011;47967;51.756;10.174;2022-07-03T20:57:34;3.50;;;1.77;;
62010;SDS011;47967;51.756;10.174;2022-07-03T21:01:36;3.40;;;1.70;;
62010;SDS011;47967;51.756;10.174;2022-07-03T21:05:39;2.10;;;1.90;;
62010;SDS011;47967;51.756;10.174;2022-07-03T21:09:43;3.20;;;2.08;;
62010;SDS011;47967;51.756;10.174;2022-07-03T21:13:47;2.80;;;1.85;;
62010;SDS011;47967;51.756;10.174;2022-07-03T21:17:49;2.00;;;1.90;;
62010;SDS011;47967;51.756;10.174;2022-07-03T21:21:52;3.88;;;2.00;;
62010;SDS011;47967;51.756;10.174;2022-07-03T21:25:57;2.33;;;1.90;;
62010;SDS011;47967;51.756;10.174;2022-07-03T21:29:59;1.77;;;1.55;;
62010;SDS011;47967;51.756;10.174;2022-07-03T21:34:02;2.38;;;1.35;;
62010;SDS011;47967;51.756;10.174;2022-07-03T21:42:09;3.20;;;1.33;;
62010;SDS011;47967;51.756;10.174;2022-07-03T21:46:12;4.28;;;1.30;;
62010;SDS011;47967;51.756;10.174;2022-07-03T21:50:15;1.98;;;1.40;;
62010;SDS011;47967;51.756;10.174;2022-07-03T21:54:17;5.50;;;1.30;;
62010;SDS011;47967;51.756;10.174;2022-07-03T21:58:21;3.70;;;1.40;;
62010;SDS011;47967;51.756;10.174;2022-07-03T22:02:24;2.88;;;1.42;;
62010;SDS011;47967;51.756;10.174;2022-07-03T22:06:26;5.72;;;1.38;;
62010;SDS011;47967;51.756;10.174;2022-07-03T22:10:29;2.38;;;1.10;;
62010;SDS011;47967;51.756;10.174;2022-07-03T22:14:33;1.88;;;1.23;;
62010;SDS011;47967;51.756;10.174;2022-07-03T22:18:36;1.95;;;1.27;;
62010;SDS011;47967;51.756;10.174;2022-07-03T22:22:39;2.87;;;1.20;;
62010;SDS011;47967;51.756;10.174;2022-07-03T22:30:45;4.43;;;1.20;;
62010;SDS011;47967;51.756;10.174;2022-07-03T22:34:48;2.58;;;1.23;;
62010;SDS011;47967;51.756;10.174;2022-07-03T22:38:50;1.65;;;1.40;;
62010;SDS011;47967;51.756;10.174;2022-07-03T22:42:53;8.10;;;1.77;;
62010;SDS011;47967;51.756;10.174;2022-07-03T22:46:57;4.38;;;1.55;;
62010;SDS011;47967;51.756;10.174;2022-07-03T22:51:00;1.85;;;1.45;;
62010;SDS011;47967;51.756;10.174;2022-07-03T22:55:03;5.18;;;1.50;;
62010;SDS011;47967;51.756;10.174;2022-07-03T22:59:06;2.25;;;1.40;;
62010;SDS011;47967;51.756;10.174;2022-07-03T23:03:11;2.47;;;1.27;;
62010;SDS011;47967;51.756;10.174;2022-07-03T23:07:13;2.38;;;1.40;;
62010;SDS011;47967;51.756;10.174;2022-07-03T23:11:16;2.37;;;1.53;;
62010;SDS011;47967;51.756;10.174;2022-07-03T23:15:19;4.77;;;1.40;;
62010;SDS011;47967;51.756;10.174;2022-07-03T23:19:22;5.22;;;1.65;;
62010;SDS011;47967;51.756;10.174;2022-07-03T23:23:25;2.80;;;1.55;;
62010;SDS011;47967;51.756;10.174;2022-07-03T23:27:28;2.07;;;1.37;;
62010;SDS011;47967;51.756;10.174;2022-07-03T23:31:30;4.88;;;1.63;;
62010;SDS011;47967;51.756;10.174;2022-07-03T23:35:34;4.43;;;1.73;;
62010;SDS011;47967;51.756;10.174;2022-07-03T23:39:57;4.50;;;2.08;;
62010;SDS011;47967;51.756;10.174;2022-07-03T23:43:59;4.93;;;1.37;;
62010;SDS011;47967;51.756;10.174;2022-07-03T23:48:02;3.70;;;1.30;;
62010;SDS011;47967;51.756;10.174;2022-07-03T23:52:06;1.88;;;1.20;;
62010;SDS011;47967;51.756;10.174;2022-07-03T23:56:09;2.35;;;1.17;;
